Time;durP1;ratioP1;P1;durP2;ratioP2;P2;SDS_P1;SDS_P2;PMS_P1;PMS_P2;Temp;Humidity;BMP_temperature;BMP_pressure;BME280_temperature;BME280_humidity;BME280_pressure;Samples;Min_cycle;Max_cycle;Signal;HPM_P1;HPM_P2
2022/05/04 00:00:14;;;;;;;4.65;2.72;;;11.70;77.10;;;;;;4957606;28;20031;-77
2022/05/04 00:02:40;;;;;;;4.28;3.20;;;11.80;77.00;;;;;;4957266;28;20541;-76
2022/05/04 00:05:07;;;;;;;4.55;3.25;;;11.70;77.30;;;;;;4957383;28;20035;-76
2022/05/04 00:07:33;;;;;;;3.55;3.03;;;11.70;77.60;;;;;;4955658;28;20039;-74
2022/05/04 00:09:59;;;;;;;6.07;3.17;;;11.60;77.60;;;;;;4957251;28;20019;-75
2022/05/04 00:12:26;;;;;;;5.15;2.92;;;11.60;77.90;;;;;;4957253;28;20028;-75
2022/05/04 00:14:52;;;;;;;6.57;3.10;;;11.70;77.70;;;;;;4957059;29;20268;-75
2022/05/04 00:17:18;;;;;;;6.43;3.40;;;11.60;77.40;;;;;;4957174;29;20062;-75
2022/05/04 00:19:43;;;;;;;6.65;3.50;;;11.60;77.30;;;;;;4956958;28;20074;-76
2022/05/04 00:22:09;;;;;;;7.57;3.72;;;11.60;77.30;;;;;;4957096;28;20050;-77
2022/05/04 00:24:35;;;;;;;6.68;3.10;;;11.60;77.20;;;;;;4957136;28;20028;-76
2022/05/04 00:27:00;;;;;;;4.72;3.08;;;11.60;77.50;;;;;;4956936;28;20020;-77
2022/05/04 00:29:26;;;;;;;6.95;3.25;;;11.50;77.50;;;;;;4956982;28;20031;-77
2022/05/04 00:31:51;;;;;;;5.43;3.10;;;11.50;77.90;;;;;;4955675;28;20063;-77
2022/05/04 00:34:17;;;;;;;3.42;2.88;;;11.30;78.30;;;;;;4956968;28;20114;-76
2022/05/04 00:36:43;;;;;;;6.38;2.63;;;11.20;78.60;;;;;;4955620;28;20034;-76
2022/05/04 00:39:08;;;;;;;4.25;2.95;;;11.10;79.00;;;;;;4956791;29;20050;-77
2022/05/04 00:41:34;;;;;;;6.20;2.92;;;11.10;79.20;;;;;;4956527;28;20019;-77
2022/05/04 00:43:59;;;;;;;4.40;3.20;;;11.00;79.50;;;;;;4956812;28;20038;-77
2022/05/04 00:46:25;;;;;;;3.38;2.70;;;10.90;79.70;;;;;;4956760;28;20106;-77
2022/05/04 00:48:50;;;;;;;4.03;3.20;;;10.90;80.00;;;;;;4956535;29;20062;-77
2022/05/04 00:51:16;;;;;;;4.72;3.90;;;10.90;79.80;;;;;;4956526;28;20023;-76
2022/05/04 00:53:43;;;;;;;5.32;3.17;;;10.90;79.60;;;;;;4956616;28;20110;-77
2022/05/04 00:56:09;;;;;;;5.55;3.42;;;10.90;79.70;;;;;;4956471;28;20030;-77
2022/05/04 00:58:55;;;;;;;6.78;3.38;;;10.80;79.70;;;;;;4956304;28;20031;-76
2022/05/04 01:01:29;;;;;;;5.85;3.60;;;10.80;80.00;;;;;;4956333;28;20091;-77
2022/05/04 01:03:55;;;;;;;5.07;3.60;;;10.80;80.00;;;;;;4956159;28;20035;-76
2022/05/04 01:06:21;;;;;;;5.18;3.08;;;10.70;80.10;;;;;;4956306;28;20095;-77
2022/05/04 01:08:48;;;;;;;8.38;5.25;;;10.70;80.30;;;;;;4959959;28;20023;-76
2022/05/04 01:11:15;;;;;;;6.97;4.00;;;10.60;80.00;;;;;;4956644;28;20106;-77
2022/05/04 01:13:40;;;;;;;6.00;4.13;;;10.60;80.00;;;;;;4956591;28;20031;-76
2022/05/04 01:16:06;;;;;;;5.70;3.92;;;10.60;79.80;;;;;;4956446;28;20024;-76
2022/05/04 01:18:31;;;;;;;4.78;3.50;;;10.60;79.70;;;;;;4956194;28;20027;-76
2022/05/04 01:20:57;;;;;;;4.75;3.17;;;10.60;79.60;;;;;;4956123;29;20110;-76
2022/05/04 01:23:25;;;;;;;4.20;2.80;;;10.60;79.60;;;;;;4955885;28;20049;-76
2022/05/04 01:25:53;;;;;;;5.80;2.88;;;10.50;79.70;;;;;;4956071;28;20030;-76
2022/05/04 01:28:19;;;;;;;4.82;2.83;;;10.40;79.80;;;;;;4955850;28;20023;-76
2022/05/04 01:30:45;;;;;;;5.22;2.88;;;10.40;79.80;;;;;;4954284;28;20348;-76
2022/05/04 01:33:10;;;;;;;4.07;2.92;;;10.40;79.80;;;;;;4955792;28;20035;-76
2022/05/04 01:35:36;;;;;;;4.75;2.90;;;10.40;79.70;;;;;;4955778;28;20026;-76
2022/05/04 01:38:02;;;;;;;6.93;2.42;;;10.40;79.70;;;;;;4954346;29;20553;-77
2022/05/04 01:40:28;;;;;;;5.05;2.58;;;10.30;79.90;;;;;;4955586;29;20105;-77
2022/05/04 01:42:53;;;;;;;6.03;3.00;;;10.20;80.00;;;;;;4955744;28;20023;-75
2022/05/04 01:45:19;;;;;;;4.38;2.92;;;10.20;80.00;;;;;;4955554;28;20039;-77
2022/05/04 01:47:48;;;;;;;5.22;2.33;;;10.20;79.80;;;;;;4954136;28;20035;-76
2022/05/04 01:50:14;;;;;;;7.63;2.80;;;10.20;79.90;;;;;;4955540;28;20102;-77
2022/05/04 01:52:39;;;;;;;4.22;2.88;;;10.20;80.00;;;;;;4955581;28;20126;-77
2022/05/04 01:55:06;;;;;;;4.15;2.80;;;10.20;79.80;;;;;;4955468;28;20030;-77
2022/05/04 01:57:31;;;;;;;4.20;2.70;;;10.20;79.50;;;;;;4955360;28;20556;-77
2022/05/04 01:59:57;;;;;;;3.78;2.60;;;10.20;79.40;;;;;;4955344;28;20039;-76
2022/05/04 02:02:25;;;;;;;3.15;2.70;;;10.10;79.60;;;;;;4955061;29;20087;-77
2022/05/04 02:04:51;;;;;;;3.72;2.83;;;10.10;79.70;;;;;;4954080;28;20523;-77
2022/05/04 02:07:16;;;;;;;3.38;2.65;;;10.00;79.80;;;;;;4955456;29;20027;-76
2022/05/04 02:09:42;;;;;;;6.15;3.15;;;9.90;80.30;;;;;;4955206;28;20031;-76
2022/05/04 02:12:08;;;;;;;4.35;2.90;;;9.80;80.70;;;;;;4955302;29;20027;-77
2022/05/04 02:14:34;;;;;;;4.35;3.03;;;9.80;80.80;;;;;;4955228;28;20482;-77
2022/05/04 02:17:00;;;;;;;3.65;3.03;;;9.80;80.90;;;;;;4954966;29;20039;-79
2022/05/04 02:19:26;;;;;;;4.20;2.78;;;9.90;80.90;;;;;;4954971;28;20035;-78
2022/05/04 02:21:52;;;;;;;3.45;2.95;;;9.80;80.60;;;;;;4955125;28;20078;-80
2022/05/04 02:24:18;;;;;;;5.20;3.15;;;9.90;80.50;;;;;;4954903;28;20363;-77
2022/05/04 02:26:43;;;;;;;3.90;2.67;;;9.90;80.40;;;;;;4954993;28;20062;-80
2022/05/04 02:29:09;;;;;;;6.65;2.95;;;9.90;80.30;;;;;;4953684;28;20430;-78
2022/05/04 02:31:34;;;;;;;4.93;3.10;;;9.90;80.00;;;;;;4954621;28;20032;-78
2022/05/04 02:34:00;;;;;;;3.42;2.67;;;9.80;79.80;;;;;;4954918;28;20035;-79
2022/05/04 02:39:09;;;;;;;5.63;2.50;;;9.90;79.90;;;;;;4954702;28;20519;-80
2022/05/04 02:41:35;;;;;;;5.80;2.85;;;9.80;80.00;;;;;;4955095;28;20339;-81
2022/05/04 02:44:03;;;;;;;3.05;2.75;;;9.80;80.40;;;;;;4954966;28;20112;-81
2022/05/04 02:46:30;;;;;;;4.05;2.78;;;9.80;80.40;;;;;;4954965;28;20027;-81
2022/05/04 02:48:56;;;;;;;5.50;3.05;;;9.90;80.30;;;;;;4954816;28;20078;-80
2022/05/04 02:51:21;;;;;;;3.47;2.55;;;9.90;79.90;;;;;;4953460;29;20039;-80
2022/05/04 02:53:47;;;;;;;6.78;2.80;;;9.90;79.70;;;;;;4954508;29;20042;-80
2022/05/04 02:56:15;;;;;;;3.15;2.78;;;9.90;79.50;;;;;;4953602;28;20040;-80
2022/05/04 02:58:45;;;;;;;4.13;3.05;;;9.80;79.80;;;;;;4954847;28;20042;-80
2022/05/04 03:04:03;;;;;;;3.75;3.17;;;9.80;79.90;;;;;;4958727;28;20037;-80
2022/05/04 03:06:29;;;;;;;3.47;2.90;;;9.80;79.80;;;;;;4958492;28;20035;-81
2022/05/04 03:08:55;;;;;;;3.58;2.70;;;9.80;79.80;;;;;;4958635;28;20027;-81
2022/05/04 03:14:07;;;;;;;6.32;2.90;;;9.80;79.80;;;;;;4958512;28;20086;-81
2022/05/04 03:16:33;;;;;;;5.32;3.28;;;9.90;80.10;;;;;;4958418;28;20070;-82
2022/05/04 03:18:59;;;;;;;4.97;3.25;;;9.90;80.00;;;;;;4958226;29;20464;-80
2022/05/04 03:21:24;;;;;;;5.28;2.97;;;9.80;80.10;;;;;;4958307;28;20106;-79
2022/05/04 03:23:50;;;;;;;6.60;3.88;;;9.90;80.30;;;;;;4958253;28;20035;-80
2022/05/04 03:26:16;;;;;;;4.93;3.50;;;9.80;80.60;;;;;;4958218;28;20371;-80
2022/05/04 03:28:41;;;;;;;5.15;3.33;;;9.70;80.40;;;;;;4958052;28;20094;-80
2022/05/04 03:31:07;;;;;;;3.40;2.97;;;9.80;80.40;;;;;;4958118;29;20488;-80
2022/05/04 03:33:32;;;;;;;4.57;3.10;;;9.70;80.50;;;;;;4957888;28;20383;-80
2022/05/04 03:35:58;;;;;;;4.90;3.25;;;9.60;80.60;;;;;;4958074;28;20418;-80
2022/05/04 03:38:24;;;;;;;4.63;2.92;;;9.60;81.00;;;;;;4957689;28;20486;-80
2022/05/04 03:40:49;;;;;;;6.30;3.50;;;9.60;81.00;;;;;;4957773;28;20028;-80
2022/05/04 03:43:15;;;;;;;6.05;2.67;;;9.60;80.80;;;;;;4957357;28;20035;-80
2022/05/04 03:45:40;;;;;;;3.90;3.03;;;9.60;80.80;;;;;;4957380;28;20047;-80
2022/05/04 03:48:06;;;;;;;5.20;3.35;;;9.70;80.80;;;;;;4972431;28;20039;-80
2022/05/04 03:50:32;;;;;;;6.60;3.13;;;9.60;80.70;;;;;;4957627;28;20027;-80
2022/05/04 03:52:57;;;;;;;5.88;3.38;;;9.70;80.70;;;;;;4956307;29;20019;-80
2022/05/04 03:55:23;;;;;;;5.38;3.45;;;9.60;80.60;;;;;;4957006;28;20470;-80
2022/05/04 03:57:50;;;;;;;4.80;3.33;;;9.60;81.00;;;;;;4957340;29;20478;-80
2022/05/04 04:00:16;;;;;;;6.35;3.28;;;9.50;81.00;;;;;;4957137;28;20123;-80
2022/05/04 04:02:42;;;;;;;8.00;3.35;;;9.60;81.10;;;;;;4957370;29;20055;-80
2022/05/04 04:05:09;;;;;;;4.50;2.90;;;9.70;80.90;;;;;;4957313;28;20062;-79
2022/05/04 04:07:34;;;;;;;6.20;2.95;;;9.70;80.70;;;;;;4957344;28;20016;-80
2022/05/04 04:10:00;;;;;;;4.07;2.95;;;9.80;80.60;;;;;;4956811;28;20371;-79
2022/05/04 04:12:26;;;;;;;6.45;3.35;;;9.80;80.40;;;;;;4957267;28;20027;-79
2022/05/04 04:14:51;;;;;;;6.60;3.20;;;9.80;80.50;;;;;;4957196;28;20047;-79
2022/05/04 04:17:17;;;;;;;12.90;6.63;;;9.90;80.10;;;;;;4957154;29;20034;-79
2022/05/04 04:19:42;;;;;;;9.10;4.68;;;9.80;80.00;;;;;;4956913;28;20118;-79
2022/05/04 04:22:08;;;;;;;6.18;3.38;;;9.70;80.40;;;;;;4957151;28;20027;-79
2022/05/04 04:24:33;;;;;;;8.45;3.47;;;9.60;80.70;;;;;;4957094;28;20035;-79
2022/05/04 04:26:59;;;;;;;8.77;3.63;;;9.60;80.80;;;;;;4956837;28;20020;-79
2022/05/04 04:29:25;;;;;;;5.70;3.42;;;9.60;81.00;;;;;;4957003;28;20023;-80
2022/05/04 04:31:50;;;;;;;5.60;3.33;;;9.60;81.00;;;;;;4956818;28;20023;-78
2022/05/04 04:34:16;;;;;;;5.97;3.30;;;9.70;80.80;;;;;;4956892;28;20032;-79
2022/05/04 04:36:43;;;;;;;5.55;3.40;;;9.80;80.60;;;;;;4956878;28;20023;-79
2022/05/04 04:39:09;;;;;;;3.53;2.90;;;9.80;80.30;;;;;;4957049;28;20114;-79
2022/05/04 04:41:34;;;;;;;5.45;3.22;;;9.90;80.10;;;;;;4956301;28;20442;-79
2022/05/04 04:44:01;;;;;;;6.55;3.35;;;9.90;80.00;;;;;;4956522;28;20035;-80
2022/05/04 04:46:27;;;;;;;6.28;3.15;;;9.90;80.10;;;;;;4956764;28;20015;-80
2022/05/04 04:48:52;;;;;;;3.90;3.15;;;9.80;79.90;;;;;;4956384;28;20071;-79
2022/05/04 04:51:18;;;;;;;6.38;3.60;;;9.90;80.00;;;;;;4956473;28;20033;-78
2022/05/04 04:53:43;;;;;;;5.07;3.45;;;9.90;80.10;;;;;;4956575;28;20062;-79
2022/05/04 04:56:09;;;;;;;4.55;3.40;;;9.90;80.20;;;;;;4954990;29;20474;-79
2022/05/04 04:58:34;;;;;;;9.68;3.95;;;9.90;80.20;;;;;;4956438;28;20058;-79
2022/05/04 05:01:00;;;;;;;4.18;3.40;;;9.90;80.20;;;;;;4956501;28;20038;-79
2022/05/04 05:03:26;;;;;;;7.75;3.75;;;10.00;79.90;;;;;;4956383;28;20150;-79
2022/05/04 05:05:51;;;;;;;7.85;3.88;;;10.10;79.70;;;;;;4956128;28;20047;-80
2022/05/04 05:08:17;;;;;;;8.75;4.30;;;10.20;79.40;;;;;;4956085;29;20041;-80
2022/05/04 05:10:42;;;;;;;5.20;3.67;;;10.20;78.90;;;;;;4956155;28;20430;-78
2022/05/04 05:13:08;;;;;;;4.88;3.55;;;10.20;78.80;;;;;;4958619;29;20027;-79
2022/05/04 05:18:24;;;;;;;7.45;4.30;;;10.30;78.80;;;;;;4960729;29;20035;-79
2022/05/04 05:20:50;;;;;;;9.48;4.97;;;10.30;78.80;;;;;;4957199;28;20027;-80
2022/05/04 05:23:16;;;;;;;11.90;5.45;;;10.40;78.90;;;;;;4955998;28;20028;-77
2022/05/04 05:25:41;;;;;;;5.95;3.90;;;10.40;78.90;;;;;;4956134;28;20122;-78
2022/05/04 05:28:07;;;;;;;13.15;5.00;;;10.40;78.80;;;;;;4955257;28;20039;-78
2022/05/04 05:30:33;;;;;;;7.88;4.75;;;10.40;79.20;;;;;;4954911;28;20024;-77
2022/05/04 05:32:59;;;;;;;11.27;4.45;;;10.40;79.20;;;;;;4955279;28;20035;-77
2022/05/04 05:35:24;;;;;;;6.22;4.70;;;10.50;79.10;;;;;;4953882;29;20418;-77
2022/05/04 05:37:50;;;;;;;6.80;4.50;;;10.70;78.70;;;;;;4955266;28;20047;-78
2022/05/04 05:40:15;;;;;;;12.32;5.13;;;10.80;78.30;;;;;;4955570;28;20035;-77
2022/05/04 05:42:41;;;;;;;5.88;4.38;;;10.90;77.70;;;;;;4955159;28;20473;-79
2022/05/04 05:45:07;;;;;;;11.73;4.60;;;11.00;77.30;;;;;;4955664;29;20031;-78
2022/05/04 05:47:32;;;;;;;8.15;5.68;;;11.10;77.00;;;;;;4955357;28;20161;-79
2022/05/04 05:49:58;;;;;;;10.05;5.40;;;11.30;76.20;;;;;;4955942;29;20082;-78
2022/05/04 05:52:24;;;;;;;12.32;6.25;;;11.30;75.90;;;;;;4955353;28;20024;-78
2022/05/04 05:54:50;;;;;;;11.90;5.70;;;11.40;75.70;;;;;;4955393;28;20027;-78
2022/05/04 05:57:16;;;;;;;8.65;4.40;;;11.50;75.60;;;;;;4955095;28;20023;-78
2022/05/04 05:59:42;;;;;;;6.82;3.97;;;11.50;75.10;;;;;;4955244;28;20086;-79
2022/05/04 06:02:07;;;;;;;4.00;3.30;;;11.60;74.80;;;;;;4955128;28;20102;-78
2022/05/04 06:04:33;;;;;;;7.60;3.85;;;11.70;75.00;;;;;;4955013;28;20077;-79
2022/05/04 06:06:59;;;;;;;5.32;2.95;;;11.70;74.80;;;;;;4955207;28;20019;-79
2022/05/04 06:09:24;;;;;;;5.55;3.40;;;11.90;74.90;;;;;;4954844;29;20035;-79
2022/05/04 06:11:52;;;;;;;6.35;3.70;;;12.00;74.50;;;;;;4955083;28;20484;-79
2022/05/04 06:14:18;;;;;;;15.68;5.65;;;12.20;74.10;;;;;;4954686;28;20170;-76
2022/05/04 06:16:44;;;;;;;17.90;5.50;;;12.30;73.60;;;;;;4954528;28;20019;-79
2022/05/04 06:19:09;;;;;;;10.65;5.28;;;12.50;73.30;;;;;;4954110;28;20560;-80
2022/05/04 06:21:35;;;;;;;16.80;5.82;;;12.60;73.00;;;;;;4955124;29;20023;-80
2022/05/04 06:24:00;;;;;;;8.13;4.75;;;12.70;72.20;;;;;;4954725;29;20098;-80
2022/05/04 06:26:26;;;;;;;7.30;4.95;;;12.70;72.10;;;;;;4953444;28;20019;-80
2022/05/04 06:28:51;;;;;;;15.95;6.18;;;12.80;71.70;;;;;;4954696;29;20086;-79
2022/05/04 06:34:07;;;;;;;8.63;4.53;;;12.90;71.90;;;;;;4954643;29;20101;-76
2022/05/04 06:36:36;;;;;;;12.82;5.28;;;13.00;71.00;;;;;;4954395;28;20160;-76
2022/05/04 06:39:03;;;;;;;9.07;5.03;;;12.90;70.70;;;;;;4954189;28;20193;-77
2022/05/04 06:41:28;;;;;;;5.95;4.78;;;12.90;71.50;;;;;;4954400;28;20074;-77
2022/05/04 06:43:54;;;;;;;15.35;4.28;;;13.00;70.40;;;;;;4954429;28;20490;-76
2022/05/04 06:46:19;;;;;;;17.98;5.25;;;13.10;71.10;;;;;;4954648;28;20034;-77
2022/05/04 06:48:48;;;;;;;7.35;4.30;;;13.50;73.90;;;;;;4952849;29;20023;-77
2022/05/04 06:51:13;;;;;;;5.88;4.05;;;13.90;70.50;;;;;;4954523;28;20098;-81
2022/05/04 06:53:39;;;;;;;6.60;4.13;;;14.10;69.40;;;;;;4954448;28;20106;-80
2022/05/04 06:56:04;;;;;;;7.50;4.00;;;14.40;67.80;;;;;;4960611;28;20536;-79
2022/05/04 06:58:30;;;;;;;8.13;3.70;;;14.70;66.40;;;;;;4954538;28;20090;-80
2022/05/04 07:00:55;;;;;;;7.45;3.92;;;14.90;65.50;;;;;;4953087;29;20040;-80
2022/05/04 07:03:21;;;;;;;8.15;3.42;;;15.20;64.20;;;;;;4954337;28;20031;-80
2022/05/04 07:05:48;;;;;;;5.95;3.45;;;15.40;63.30;;;;;;4953904;29;20062;-79
2022/05/04 07:08:13;;;;;;;7.18;3.22;;;15.80;61.80;;;;;;4953695;29;20015;-80
2022/05/04 07:10:39;;;;;;;7.28;3.20;;;16.00;61.10;;;;;;4953168;29;20380;-79
2022/05/04 07:13:06;;;;;;;6.20;3.15;;;16.20;60.10;;;;;;4953731;28;20544;-80
2022/05/04 07:15:32;;;;;;;5.43;3.00;;;16.40;59.30;;;;;;4954229;29;20046;-80
2022/05/04 07:17:57;;;;;;;7.07;3.50;;;16.50;58.70;;;;;;4952601;28;20473;-79
2022/05/04 07:20:23;;;;;;;6.45;3.38;;;16.60;57.90;;;;;;4954384;29;20027;-81
2022/05/04 07:22:48;;;;;;;5.47;3.22;;;16.60;57.20;;;;;;4954073;28;20019;-81
2022/05/04 07:25:14;;;;;;;4.13;3.22;;;16.70;56.70;;;;;;4954054;29;20027;-80
2022/05/04 07:27:40;;;;;;;4.93;3.15;;;16.80;56.40;;;;;;4953966;28;20110;-80
2022/05/04 07:30:06;;;;;;;7.13;3.28;;;16.80;56.20;;;;;;4954432;29;20027;-80
2022/05/04 07:32:31;;;;;;;6.40;3.17;;;16.80;54.70;;;;;;4954228;28;20453;-79
2022/05/04 07:34:57;;;;;;;6.60;3.08;;;16.70;55.60;;;;;;4952597;28;20031;-78
2022/05/04 07:37:22;;;;;;;4.22;3.60;;;16.60;55.90;;;;;;4953202;28;20175;-80
2022/05/04 07:42:32;;;;;;;4.25;2.92;;;16.70;56.00;;;;;;4954062;28;20109;-80
2022/05/04 07:45:03;;;;;;;5.63;3.30;;;16.80;56.60;;;;;;4954103;28;20470;-79
2022/05/04 07:47:34;;;;;;;8.35;4.10;;;17.00;55.80;;;;;;4957522;29;20026;-80
2022/05/04 07:50:00;;;;;;;10.13;5.13;;;17.20;55.70;;;;;;4957477;28;20086;-79
2022/05/04 07:52:26;;;;;;;11.27;5.75;;;17.20;55.70;;;;;;4956557;28;20124;-79
2022/05/04 07:54:52;;;;;;;11.65;5.88;;;17.30;56.80;;;;;;4955902;28;20039;-78
2022/05/04 07:57:19;;;;;;;15.00;6.40;;;17.30;56.50;;;;;;4956976;28;20075;-80
2022/05/04 08:04:16;;;;;;;10.50;6.05;;;17.30;56.20;;;;;;4957036;28;20419;-79
2022/05/04 08:05:15;;;;;;;16.35;8.85;;;17.40;55.50;;;;;;4957171;29;19913;-78
2022/05/04 08:07:46;;;;;;;14.65;7.65;;;17.00;53.70;;;;;;4957560;28;20114;-79
2022/05/04 08:10:13;;;;;;;11.02;6.13;;;17.00;54.60;;;;;;4957425;28;20033;-80
2022/05/04 08:12:38;;;;;;;16.75;8.75;;;17.20;53.20;;;;;;4957308;28;20430;-80
2022/05/04 08:15:05;;;;;;;15.70;7.88;;;17.40;53.40;;;;;;4956152;28;20027;-81
2022/05/04 08:17:30;;;;;;;24.90;11.18;;;17.50;53.30;;;;;;4957892;28;20469;-82
2022/05/04 08:19:56;;;;;;;16.98;8.73;;;17.70;53.20;;;;;;4962735;28;20062;-80
2022/05/04 08:22:22;;;;;;;16.40;8.40;;;17.80;52.90;;;;;;4962715;28;20478;-77
2022/05/04 08:24:47;;;;;;;18.83;8.82;;;17.80;50.70;;;;;;4961375;28;20057;-79
2022/05/04 08:27:13;;;;;;;14.10;8.25;;;17.90;50.00;;;;;;4962059;28;20024;-79
2022/05/04 08:29:39;;;;;;;13.20;7.07;;;18.00;49.40;;;;;;4961224;28;20444;-80
2022/05/04 08:32:06;;;;;;;10.65;5.88;;;17.80;46.00;;;;;;4958419;28;20019;-80
2022/05/04 08:34:31;;;;;;;12.25;6.68;;;17.90;46.70;;;;;;4957880;28;20110;-79
2022/05/04 08:36:57;;;;;;;10.40;4.97;;;18.00;47.20;;;;;;4957344;29;20430;-79
2022/05/04 08:39:23;;;;;;;5.97;4.38;;;18.10;46.50;;;;;;4955096;28;20055;-79
2022/05/04 08:41:48;;;;;;;9.68;4.63;;;18.20;47.30;;;;;;4956680;28;20023;-79
2022/05/04 08:44:14;;;;;;;4.90;2.90;;;18.30;45.70;;;;;;4956671;28;20038;-79
2022/05/04 08:46:44;;;;;;;3.85;2.58;;;18.30;43.90;;;;;;4956171;28;20019;-79
2022/05/04 08:49:12;;;;;;;4.53;2.38;;;18.10;44.90;;;;;;4956303;29;20023;-79
2022/05/04 08:51:39;;;;;;;4.65;2.53;;;18.10;45.30;;;;;;4956359;28;20035;-80
2022/05/04 08:54:06;;;;;;;4.68;2.50;;;18.00;46.10;;;;;;4956633;28;20027;-79
2022/05/04 08:56:34;;;;;;;2.55;1.90;;;17.90;45.90;;;;;;4955939;28;20019;-80
2022/05/04 08:59:07;;;;;;;3.90;2.40;;;17.60;45.30;;;;;;4955674;28;20041;-79
2022/05/04 09:01:37;;;;;;;6.35;2.80;;;17.50;45.50;;;;;;4956296;28;20114;-79
2022/05/04 09:04:02;;;;;;;3.60;2.30;;;17.50;46.60;;;;;;4956074;28;20019;-79
2022/05/04 09:06:33;;;;;;;3.33;2.55;;;17.80;47.90;;;;;;4956096;28;20035;-80
2022/05/04 09:09:08;;;;;;;3.60;2.30;;;18.00;47.10;;;;;;4970852;28;20458;-80
2022/05/04 09:11:43;;;;;;;2.70;2.00;;;18.00;43.20;;;;;;4955868;29;20027;-79
2022/05/04 09:14:20;;;;;;;6.28;3.05;;;17.80;43.50;;;;;;4955844;29;20266;-80
2022/05/04 09:16:46;;;;;;;3.65;2.33;;;17.70;43.10;;;;;;4955984;28;20054;-79
2022/05/04 09:19:14;;;;;;;5.78;3.60;;;17.70;44.20;;;;;;4955786;28;20394;-79
2022/05/04 09:21:41;;;;;;;7.95;4.00;;;18.00;44.30;;;;;;4955733;28;20058;-79
2022/05/04 09:24:08;;;;;;;9.80;2.75;;;18.20;43.90;;;;;;4955683;28;20477;-79
2022/05/04 09:26:44;;;;;;;5.30;2.38;;;18.10;42.50;;;;;;4955800;28;20161;-79
2022/05/04 09:29:13;;;;;;;5.43;2.55;;;18.20;41.40;;;;;;4955769;28;20038;-79
2022/05/04 09:31:41;;;;;;;6.47;2.40;;;18.50;43.70;;;;;;4955571;28;20536;-79
2022/05/04 09:34:08;;;;;;;3.83;2.17;;;18.80;41.70;;;;;;4955662;28;20027;-79
2022/05/04 09:36:37;;;;;;;3.30;1.77;;;19.10;40.80;;;;;;4955517;28;20508;-79
2022/05/04 09:45:07;;;;;;;4.55;2.05;;;19.80;38.40;;;;;;4955672;28;20041;-79
2022/05/04 09:47:37;;;;;;;3.67;2.50;;;19.80;39.50;;;;;;4955501;29;20031;-80
2022/05/04 09:50:03;;;;;;;3.38;2.22;;;19.80;38.80;;;;;;4956199;28;20078;-79
2022/05/04 09:52:42;;;;;;;2.88;2.00;;;20.20;39.50;;;;;;4986287;28;20023;-84
2022/05/04 09:55:18;;;;;;;2.40;2.20;;;20.30;40.90;;;;;;4991415;28;20014;-85
2022/05/04 09:57:44;;;;;;;;;;;20.50;40.00;;;;;;4987909;28;20430;-81
2022/05/04 10:00:10;;;;;;;2.50;1.70;;;20.40;38.60;;;;;;4977103;28;19914;-83
2022/05/04 10:02:37;;;;;;;6.00;2.28;;;20.20;39.10;;;;;;4974498;28;20367;-83
2022/05/04 10:05:04;;;;;;;4.35;2.25;;;19.90;39.50;;;;;;4974280;28;20081;-83
2022/05/04 10:07:31;;;;;;;4.13;2.10;;;19.70;39.90;;;;;;4988373;28;20023;-81
2022/05/04 10:09:56;;;;;;;3.58;2.35;;;19.30;41.00;;;;;;4973726;28;20473;-80
2022/05/04 10:12:23;;;;;;;5.25;2.25;;;19.00;42.10;;;;;;4973668;28;20027;-78
2022/05/04 10:14:51;;;;;;;3.85;2.22;;;18.80;41.90;;;;;;4973661;28;20117;-81
2022/05/04 10:17:22;;;;;;;3.85;2.30;;;18.70;43.00;;;;;;4973928;28;20521;-82
2022/05/04 10:19:52;;;;;;;6.68;2.95;;;18.60;44.90;;;;;;4973759;28;20125;-80
2022/05/04 10:22:27;;;;;;;6.75;2.85;;;18.60;46.10;;;;;;4974262;28;20023;-80
2022/05/04 10:24:56;;;;;;;;;;;18.40;46.30;;;;;;4974745;28;20135;-81
2022/05/04 10:27:23;;;;;;;5.28;3.00;;;18.10;47.40;;;;;;4974118;28;19914;-81
2022/05/04 10:32:55;;;;;;;5.30;3.17;;;17.80;49.90;;;;;;4973932;28;20068;-80
2022/05/04 10:35:40;;;;;;;6.30;3.35;;;17.70;51.00;;;;;;4973772;28;20569;-80
2022/05/04 10:38:28;;;;;;;4.20;3.20;;;17.70;51.10;;;;;;4973431;28;20050;-81
2022/05/04 10:41:02;;;;;;;4.07;3.20;;;17.70;51.00;;;;;;4973764;28;20400;-80
2022/05/04 10:43:50;;;;;;;3.72;2.88;;;17.70;50.40;;;;;;4973573;28;20019;-80
2022/05/04 10:46:23;;;;;;;5.35;2.72;;;17.50;50.50;;;;;;4974518;28;20033;-78
2022/05/04 10:48:56;;;;;;;3.78;2.80;;;17.40;51.70;;;;;;4974799;28;20139;-78
2022/05/04 10:51:27;;;;;;;7.00;3.22;;;17.30;52.20;;;;;;4974774;28;20031;-79
2022/05/04 10:53:59;;;;;;;3.22;2.60;;;17.10;52.30;;;;;;4990000;28;20037;-78
2022/05/04 10:56:27;;;;;;;7.50;3.15;;;17.00;51.50;;;;;;4970902;28;20022;-78
2022/05/04 10:58:55;;;;;;;6.30;3.63;;;16.90;52.30;;;;;;4989297;28;20071;-78
2022/05/04 11:01:21;;;;;;;7.28;3.38;;;16.90;53.20;;;;;;4974271;28;20113;-78
2022/05/04 11:03:49;;;;;;;5.18;3.25;;;16.90;53.70;;;;;;4974439;28;20080;-77
2022/05/04 11:06:29;;;;;;;4.20;2.90;;;16.90;54.40;;;;;;4974500;28;20035;-77
2022/05/04 11:08:57;;;;;;;6.80;2.75;;;16.90;54.90;;;;;;4975335;28;20030;-77
2022/05/04 11:11:26;;;;;;;10.40;3.60;;;16.80;56.60;;;;;;4974363;28;20362;-80
2022/05/04 11:13:53;;;;;;;11.02;3.75;;;16.70;59.70;;;;;;4973998;28;20026;-75
2022/05/04 11:16:26;;;;;;;19.48;4.30;;;16.40;59.80;;;;;;4973683;28;20081;-77
2022/05/04 11:18:52;;;;;;;11.35;4.95;;;16.00;66.40;;;;;;4973348;28;20042;-79
2022/05/04 11:21:18;;;;;;;11.93;5.10;;;15.40;65.30;;;;;;4975901;28;20031;-79
2022/05/04 11:23:52;;;;;;;9.18;4.85;;;14.60;69.70;;;;;;4977744;28;20102;-78
2022/05/04 11:26:18;;;;;;;15.50;5.55;;;13.60;69.70;;;;;;4977760;28;20105;-78
2022/05/04 11:28:44;;;;;;;8.95;4.32;;;12.90;74.80;;;;;;4977558;28;20460;-77
2022/05/04 11:31:11;;;;;;;8.43;3.50;;;12.40;73.80;;;;;;4976908;28;20101;-76
2022/05/04 11:33:37;;;;;;;7.05;3.42;;;12.00;75.60;;;;;;4974000;28;20458;-75
2022/05/04 11:36:02;;;;;;;3.25;2.00;;;12.10;74.70;;;;;;4975406;28;20085;-76
2022/05/04 11:38:28;;;;;;;3.63;2.08;;;12.20;73.90;;;;;;4975743;28;20473;-81
2022/05/04 11:40:54;;;;;;;2.70;2.00;;;12.20;75.50;;;;;;4976843;28;20109;-76
2022/05/04 11:43:34;;;;;;;4.82;2.28;;;12.30;75.80;;;;;;4971145;28;20030;-77
2022/05/04 11:46:04;;;;;;;8.50;3.10;;;12.40;77.30;;;;;;4969336;28;20057;-77
2022/05/04 11:48:30;;;;;;;8.65;3.25;;;12.50;78.80;;;;;;4977081;28;20018;-80
2022/05/04 11:50:56;;;;;;;6.18;3.45;;;12.50;80.10;;;;;;4976828;28;20118;-78
2022/05/04 11:53:21;;;;;;;6.03;3.65;;;12.40;80.50;;;;;;4992101;28;20117;-84
2022/05/04 11:55:47;;;;;;;8.90;3.35;;;12.20;79.40;;;;;;4976896;28;20031;-77
2022/05/04 11:58:14;;;;;;;4.90;2.83;;;12.20;79.20;;;;;;4976596;28;20023;-77
2022/05/04 12:00:41;;;;;;;10.00;4.07;;;12.30;79.10;;;;;;4976549;28;20511;-78
2022/05/04 12:03:09;;;;;;;7.43;4.32;;;12.30;79.20;;;;;;4976678;28;20030;-77
2022/05/04 12:05:37;;;;;;;8.52;4.15;;;12.40;79.40;;;;;;4976829;28;20030;-78
2022/05/04 12:08:06;;;;;;;9.07;5.00;;;12.50;79.20;;;;;;4976604;28;20450;-78
2022/05/04 12:10:34;;;;;;;12.90;6.32;;;12.50;79.20;;;;;;4976522;28;20023;-78
2022/05/04 12:13:04;;;;;;;10.32;6.13;;;12.60;79.70;;;;;;4976515;28;20031;-78
2022/05/04 12:15:30;;;;;;;9.15;4.90;;;12.70;79.10;;;;;;4991576;28;20027;-77
2022/05/04 12:18:05;;;;;;;6.93;4.53;;;12.60;77.40;;;;;;4976507;28;20023;-77
2022/05/04 12:20:34;;;;;;;11.25;5.25;;;12.50;77.10;;;;;;4976473;28;20104;-77
2022/05/04 12:23:03;;;;;;;7.40;4.63;;;12.30;78.20;;;;;;4976023;28;20098;-77
2022/05/04 12:25:31;;;;;;;8.88;5.50;;;12.30;79.40;;;;;;4976254;28;20477;-78
2022/05/04 12:27:57;;;;;;;6.88;5.05;;;12.30;78.90;;;;;;4976268;28;20023;-79
2022/05/04 12:33:09;;;;;;;;;;;12.10;80.00;;;;;;4976272;28;20033;-77
2022/05/04 12:35:37;;;;;;;8.43;5.55;;;12.00;81.50;;;;;;4976078;28;20014;-78
2022/05/04 12:38:04;;;;;;;7.78;5.40;;;11.90;81.70;;;;;;4975887;28;20047;-78
2022/05/04 12:40:32;;;;;;;9.93;5.93;;;11.90;82.30;;;;;;4974630;28;20067;-78
2022/05/04 12:43:01;;;;;;;6.85;5.03;;;11.90;82.40;;;;;;4974272;28;20027;-78
2022/05/04 12:45:27;;;;;;;7.47;5.97;;;12.00;82.90;;;;;;4990433;28;20528;-78
2022/05/04 12:47:57;;;;;;;10.32;5.93;;;12.20;83.50;;;;;;4975792;28;20387;-78
2022/05/04 12:50:25;;;;;;;8.38;5.63;;;12.30;82.50;;;;;;4975751;28;20026;-78
2022/05/04 12:52:50;;;;;;;9.23;5.10;;;12.40;82.20;;;;;;4975826;28;20037;-78
2022/05/04 12:55:17;;;;;;;11.65;5.28;;;12.50;82.20;;;;;;4975844;28;20101;-78
2022/05/04 12:57:42;;;;;;;9.02;5.93;;;12.70;82.70;;;;;;4975418;28;20035;-78
2022/05/04 13:00:12;;;;;;;8.10;5.43;;;12.80;82.40;;;;;;5084877;23;20124;-78
2022/05/04 13:02:40;;;;;;;10.65;6.57;;;13.00;81.70;;;;;;4993935;28;20078;-78
2022/05/04 13:05:06;;;;;;;9.23;6.05;;;13.30;82.50;;;;;;4995508;28;20018;-77
2022/05/04 13:07:32;;;;;;;10.80;6.05;;;13.60;81.60;;;;;;4994815;28;20018;-79
2022/05/04 13:09:58;;;;;;;8.02;5.15;;;13.80;79.50;;;;;;4994524;28;20029;-79
2022/05/04 13:12:23;;;;;;;8.68;4.93;;;13.90;79.00;;;;;;4994939;28;20388;-78
2022/05/04 13:14:49;;;;;;;6.22;4.45;;;14.00;78.30;;;;;;4994853;28;20384;-79
2022/05/04 13:17:15;;;;;;;7.43;4.20;;;14.20;77.20;;;;;;4993528;28;20053;-79